createdAt,value
2018-10-09T07:10:38.904Z,58.13
2018-10-09T07:13:07.961Z,65.00
2018-10-09T07:15:37.075Z,58.07
2018-10-09T07:18:06.304Z,62.40
2018-10-09T07:20:35.527Z,61.03
2018-10-09T07:23:04.701Z,60.53
2018-10-09T07:25:33.779Z,59.15
2018-10-09T07:28:03.042Z,63.23
2018-10-09T07:30:31.966Z,56.93
2018-10-09T07:33:01.105Z,75.30
2018-10-09T07:35:30.237Z,68.93
2018-10-09T07:37:59.330Z,63.80
2018-10-09T07:40:28.416Z,65.23
2018-10-09T07:42:57.487Z,60.27
2018-10-09T07:45:26.565Z,63.73
2018-10-09T07:47:56.089Z,61.80
2018-10-09T07:50:26.173Z,70.25
2018-10-09T07:52:56.042Z,69.30
2018-10-09T07:55:25.997Z,71.43
2018-10-09T07:57:56.048Z,62.87
2018-10-09T08:00:26.016Z,70.33
2018-10-09T08:02:56.123Z,57.03
2018-10-09T08:05:26.272Z,57.93
2018-10-09T08:07:56.194Z,60.30
2018-10-09T08:10:26.160Z,55.30
2018-10-09T08:12:56.283Z,55.50
2018-10-09T08:15:26.362Z,51.63
2018-10-09T08:17:56.308Z,55.27
2018-10-09T08:20:26.238Z,58.52
2018-10-09T08:22:56.406Z,54.80
2018-10-09T08:25:26.386Z,62.90
2018-10-09T08:27:56.376Z,52.80
2018-10-09T08:30:26.334Z,54.53
2018-10-09T08:32:56.383Z,57.27
2018-10-09T08:35:26.464Z,54.75
2018-10-09T08:37:56.471Z,58.10
2018-10-09T08:40:26.679Z,58.03
2018-10-09T08:42:56.635Z,55.50
2018-10-09T08:45:26.559Z,59.73
2018-10-09T08:47:56.748Z,51.73
2018-10-09T08:50:26.603Z,55.10
2018-10-09T08:52:56.726Z,59.45
2018-10-09T08:55:26.658Z,60.73
2018-10-09T08:57:57.106Z,55.40
2018-10-09T09:00:26.725Z,53.05
2018-10-09T09:02:56.788Z,56.13
2018-10-09T09:05:26.754Z,55.43
2018-10-09T09:07:56.826Z,55.75
2018-10-09T09:10:26.720Z,54.67
2018-10-09T09:12:56.784Z,55.20
2018-10-09T09:15:26.792Z,54.03
2018-10-09T09:17:56.826Z,53.48
2018-10-09T09:20:27.401Z,58.80
2018-10-09T09:22:56.898Z,56.33
2018-10-09T09:25:27.039Z,56.42
2018-10-09T09:27:56.895Z,59.00
2018-10-09T09:30:26.895Z,62.25
2018-10-09T09:32:57.022Z,55.25
2018-10-09T09:35:26.922Z,52.40
2018-10-09T09:37:57.054Z,50.17
2018-10-09T09:40:26.966Z,61.90
2018-10-09T09:42:57.099Z,54.35
2018-10-09T09:45:27.021Z,50.10
2018-10-09T09:47:57.098Z,57.40
2018-10-09T09:50:27.045Z,53.47
2018-10-09T09:52:57.119Z,58.68
2018-10-09T09:55:27.237Z,55.70
2018-10-09T09:57:57.299Z,53.07
2018-10-09T10:00:32.610Z,51.68
2018-10-09T10:03:01.792Z,54.20
2018-10-09T10:05:30.938Z,57.10
2018-10-09T10:08:00.018Z,55.70
2018-10-09T10:10:29.123Z,58.57
2018-10-09T10:12:58.230Z,55.20
2018-10-09T10:15:27.300Z,57.27
2018-10-09T10:17:57.359Z,54.43
2018-10-09T10:20:27.492Z,56.45
2018-10-09T10:22:57.555Z,54.33
2018-10-09T10:25:27.501Z,54.05
2018-10-09T10:27:57.651Z,58.80
2018-10-09T10:30:27.565Z,55.47
2018-10-09T10:32:57.735Z,51.95
2018-10-09T10:35:27.551Z,47.43
2018-10-09T10:37:57.731Z,49.93
2018-10-09T10:40:27.609Z,49.10
2018-10-09T10:42:57.688Z,53.70
2018-10-09T10:45:27.645Z,50.38
2018-10-09T10:47:57.788Z,53.45
2018-10-09T10:50:27.896Z,46.58
2018-10-09T10:52:57.811Z,48.30
2018-10-09T10:55:27.968Z,47.00
2018-10-09T10:57:57.919Z,40.50
2018-10-09T11:00:27.823Z,35.83
2018-10-09T11:02:57.801Z,36.20
2018-10-09T11:20:55.866Z,40.23
2018-10-09T11:23:25.986Z,43.10
2018-10-09T11:25:55.126Z,39.93
2018-10-09T11:28:24.549Z,40.37
2018-10-09T11:30:53.648Z,39.27
2018-10-09T11:33:23.073Z,37.90
2018-10-09T11:35:52.194Z,35.70
2018-10-09T11:38:22.115Z,37.23
2018-10-09T11:40:51.195Z,33.57
2018-10-09T11:43:20.650Z,32.70
2018-10-09T11:45:49.807Z,37.30
2018-10-09T11:48:21.451Z,37.20
2018-10-09T11:50:50.591Z,35.00
2018-10-09T11:53:20.087Z,31.70
2018-10-09T11:55:49.226Z,33.43
2018-10-09T11:58:18.701Z,35.97
2018-10-09T12:00:49.241Z,37.90
2018-10-09T12:03:18.735Z,33.73
2018-10-09T12:05:47.934Z,35.70
2018-10-09T12:08:32.170Z,33.23
2018-10-09T12:11:01.847Z,36.57
2018-10-09T12:13:30.945Z,32.53
2018-10-09T12:16:00.128Z,33.80
2018-10-09T12:18:29.188Z,32.20
2018-10-09T12:20:58.545Z,36.43
2018-10-09T12:28:37.562Z,36.27
2018-10-09T12:31:06.787Z,35.67
2018-10-09T12:33:35.963Z,32.73
2018-10-09T12:36:05.505Z,36.88
2018-10-09T12:38:34.845Z,35.07
2018-10-09T12:41:03.987Z,34.30
2018-10-09T12:43:33.111Z,33.33
2018-10-09T12:46:02.217Z,33.00
2018-10-09T12:48:31.840Z,33.00
2018-10-09T12:51:00.973Z,29.00
2018-10-09T12:53:30.116Z,31.03
2018-10-09T12:55:59.213Z,29.87
2018-10-09T12:58:29.397Z,30.00
2018-10-09T13:00:58.999Z,39.33
2018-10-09T13:03:29.004Z,32.70
2018-10-09T13:05:58.987Z,39.48
2018-10-09T13:13:34.217Z,33.30
2018-10-09T13:16:03.359Z,31.23
2018-10-09T13:18:32.448Z,28.97
2018-10-09T13:21:01.749Z,28.00
2018-10-09T13:23:30.804Z,35.80
2018-10-09T13:25:59.960Z,32.17
2018-10-09T13:28:29.592Z,31.87
2018-10-09T13:30:59.408Z,30.10
2018-10-09T13:33:29.265Z,30.10
2018-10-09T13:35:59.283Z,29.30
2018-10-09T13:53:57.571Z,26.80
2018-10-09T13:56:27.131Z,28.87
2018-10-09T13:58:56.249Z,27.90
2018-10-09T14:01:25.405Z,27.17
2018-10-09T14:03:54.601Z,26.80
2018-10-09T14:06:24.102Z,30.60
2018-10-09T14:08:53.313Z,64.27
2018-10-09T14:11:22.897Z,31.43
2018-10-09T14:13:53.617Z,28.70
2018-10-09T14:16:23.177Z,71.63
2018-10-09T14:18:52.365Z,30.53
2018-10-09T14:21:23.410Z,138.50
2018-10-09T14:23:52.567Z,28.23
2018-10-09T14:26:22.043Z,27.27
2018-10-09T14:28:51.219Z,29.72
2018-10-09T14:31:20.467Z,24.77
2018-10-09T14:33:49.585Z,25.67
2018-10-09T14:49:16.186Z,21.43
2018-10-09T14:51:45.266Z,24.27
2018-10-09T14:54:14.414Z,22.23
2018-10-09T14:56:43.947Z,21.60
2018-10-09T14:59:13.050Z,19.57
2018-10-09T15:01:42.204Z,21.90
2018-10-09T15:04:11.438Z,24.90
2018-10-09T15:06:40.614Z,24.13
2018-10-09T15:09:11.348Z,25.45
2018-10-09T15:11:40.628Z,20.55
2018-10-09T15:14:09.804Z,21.95
2018-10-09T15:16:39.295Z,24.43
2018-10-09T15:19:08.847Z,20.50
2018-10-09T15:21:38.173Z,26.60
2018-10-09T15:24:07.372Z,22.57
2018-10-09T15:26:36.533Z,22.65
2018-10-09T15:29:05.681Z,22.53
2018-10-09T15:31:34.802Z,22.27
2018-10-09T15:34:03.914Z,23.63
2018-10-09T15:36:32.990Z,20.43
2018-10-09T15:39:02.148Z,23.77
2018-10-09T15:41:31.284Z,23.10
2018-10-09T15:44:00.604Z,18.40
2018-10-09T15:51:31.012Z,20.57
2018-10-09T15:54:00.958Z,25.60
2018-10-09T15:56:33.024Z,27.67
2018-10-09T15:59:03.990Z,26.20
2018-10-09T16:01:33.167Z,26.10
2018-10-09T16:04:02.358Z,26.53
2018-10-09T16:06:31.423Z,20.37
2018-10-09T16:09:01.309Z,21.27
2018-10-09T16:11:33.213Z,22.17
2018-10-09T16:14:03.875Z,17.93
2018-10-09T16:16:33.068Z,17.80
2018-10-09T16:19:02.188Z,22.40
2018-10-09T16:21:31.698Z,19.33
2018-10-09T16:24:01.764Z,19.50
2018-10-09T16:52:23.585Z,22.37
2018-10-09T16:54:52.754Z,20.80
2018-10-09T16:57:22.223Z,31.93
2018-10-09T16:59:51.367Z,18.27
2018-10-09T17:02:21.033Z,22.50
2018-10-09T17:04:50.187Z,25.17
2018-10-09T17:07:20.081Z,27.07
2018-10-09T17:09:49.196Z,22.40
2018-10-09T17:12:18.723Z,26.13
2018-10-09T17:14:48.262Z,26.47
2018-10-09T17:17:17.607Z,25.90
2018-10-09T17:19:46.823Z,25.93
2018-10-09T17:22:16.239Z,30.77
2018-10-09T17:24:45.479Z,24.10
2018-10-09T17:27:15.033Z,25.90
2018-10-09T17:29:44.519Z,21.90
2018-10-09T17:32:13.728Z,27.10
2018-10-09T17:34:42.875Z,26.20
2018-10-09T17:37:12.051Z,22.13
2018-10-09T17:39:41.169Z,23.83
2018-10-09T17:42:10.374Z,21.83
2018-10-09T17:44:39.519Z,21.65
2018-10-09T17:47:09.453Z,22.20
2018-10-09T17:49:40.155Z,25.10
2018-10-09T17:52:10.366Z,24.87
2018-10-09T17:54:39.516Z,21.30
2018-10-09T17:57:08.667Z,23.60
2018-10-09T17:59:37.906Z,23.57
2018-10-09T18:02:07.095Z,28.77
2018-10-09T18:04:36.234Z,30.13
2018-10-09T18:07:05.479Z,27.80
2018-10-09T18:09:34.640Z,27.03
2018-10-09T18:12:03.822Z,26.00
2018-10-09T18:14:33.283Z,30.67
2018-10-09T18:17:02.943Z,26.60
2018-10-09T18:19:33.211Z,33.53
2018-10-09T18:22:02.938Z,31.57
2018-10-09T18:40:15.059Z,22.50
2018-10-09T18:42:44.369Z,26.85
2018-10-09T18:45:13.566Z,30.12
2018-10-09T18:47:44.092Z,23.10
2018-10-09T18:50:13.751Z,26.63
2018-10-09T18:52:43.375Z,30.40
2018-10-09T18:55:14.402Z,27.87
2018-10-09T18:57:44.181Z,29.60
2018-10-09T19:00:14.056Z,33.83
2018-10-09T19:02:43.301Z,25.27
2018-10-09T19:05:12.521Z,30.30
2018-10-09T19:07:41.867Z,28.50
2018-10-09T19:10:11.330Z,27.05
2018-10-09T19:12:40.706Z,24.57
2018-10-09T19:15:10.142Z,32.85
2018-10-09T19:17:39.573Z,20.72
2018-10-09T19:20:09.084Z,23.00
2018-10-09T19:22:38.462Z,24.53
2018-10-09T19:25:09.780Z,23.60
2018-10-09T19:27:39.077Z,22.90
2018-10-09T19:30:09.041Z,21.52
2018-10-09T19:32:38.481Z,23.87
2018-10-09T19:35:38.745Z,22.73
2018-10-09T19:38:07.976Z,23.40
2018-10-09T19:40:37.279Z,20.90
2018-10-09T19:43:06.655Z,22.60
2018-10-09T19:45:36.086Z,28.00
2018-10-09T19:48:05.461Z,24.53
2018-10-09T19:50:34.771Z,22.37
2018-10-09T19:53:04.055Z,28.20
2018-10-09T19:55:34.536Z,24.75
2018-10-09T19:58:04.190Z,23.90
2018-10-09T20:00:34.401Z,24.25
2018-10-09T20:06:06.226Z,25.73
2018-10-09T20:08:35.545Z,24.50
2018-10-09T20:11:35.526Z,26.90
2018-10-09T20:14:04.637Z,24.33
2018-10-09T20:16:34.016Z,21.35
2018-10-09T20:19:04.060Z,20.82
2018-10-09T20:26:36.065Z,18.43
2018-10-09T20:29:05.550Z,20.73
2018-10-09T20:31:34.642Z,25.80
2018-10-09T20:34:04.300Z,23.23
2018-10-09T20:36:33.443Z,19.30
2018-10-09T20:39:02.851Z,20.20
2018-10-09T20:41:32.638Z,23.10
2018-10-09T20:44:01.757Z,21.77
2018-10-09T20:46:30.974Z,18.37
2018-10-09T20:49:00.106Z,30.33
2018-10-09T20:51:29.615Z,21.17
2018-10-09T20:53:58.707Z,22.73
2018-10-09T20:56:27.895Z,21.20
2018-10-09T20:58:57.006Z,23.33
2018-10-09T21:01:26.501Z,23.97
2018-10-09T21:03:55.709Z,21.60
2018-10-09T21:06:25.237Z,21.77
2018-10-09T21:08:54.337Z,27.20
2018-10-09T21:11:23.790Z,20.62
2018-10-09T21:13:52.902Z,22.80
2018-10-09T21:16:22.445Z,24.83
2018-10-09T21:18:51.567Z,21.80
2018-10-09T21:21:21.111Z,18.87
2018-10-09T21:23:50.230Z,23.63
2018-10-09T21:26:19.617Z,23.42
2018-10-09T21:28:48.759Z,20.97
2018-10-09T21:31:18.244Z,18.87
2018-10-09T21:33:47.439Z,22.77
2018-10-09T21:36:16.537Z,24.00
2018-10-09T21:38:46.015Z,26.82
2018-10-09T21:41:15.126Z,18.50
2018-10-09T21:43:44.237Z,17.75
2018-10-09T21:46:13.403Z,19.17
2018-10-09T21:48:42.507Z,19.67
2018-10-09T21:51:11.623Z,16.95
2018-10-09T21:53:40.722Z,16.70
2018-10-09T21:56:09.939Z,22.07
2018-10-09T21:58:39.110Z,21.10
2018-10-09T22:01:09.223Z,21.27
2018-10-09T22:03:38.502Z,21.37
2018-10-09T22:06:08.072Z,20.90
2018-10-09T22:08:37.205Z,22.30
2018-10-09T22:11:06.330Z,21.60
2018-10-09T22:29:16.025Z,17.37
2018-10-09T22:31:45.156Z,21.50
2018-10-09T22:34:14.302Z,18.90
2018-10-09T22:36:43.394Z,20.23
2018-10-09T22:39:12.478Z,19.62
2018-10-09T22:41:41.573Z,16.90
2018-10-09T22:44:10.744Z,19.87
2018-10-09T22:46:39.851Z,22.13
2018-10-09T22:49:09.036Z,18.17
2018-10-09T22:51:38.143Z,18.40
2018-10-09T22:54:07.260Z,19.80
2018-10-09T22:56:36.773Z,22.00
2018-10-09T22:59:06.814Z,18.23
2018-10-09T23:06:37.900Z,18.90
2018-10-09T23:09:09.454Z,22.10
2018-10-09T23:11:38.676Z,21.43
2018-10-09T23:14:07.814Z,18.33
2018-10-09T23:16:37.317Z,27.13
2018-10-09T23:19:07.072Z,19.83
2018-10-09T23:26:42.503Z,22.37
2018-10-09T23:29:11.589Z,19.57
2018-10-09T23:31:40.668Z,20.03
2018-10-09T23:34:09.882Z,18.97
2018-10-09T23:36:38.957Z,18.97
2018-10-09T23:39:09.353Z,20.63
2018-10-09T23:41:38.425Z,16.20
2018-10-09T23:44:07.553Z,15.80
2018-10-09T23:46:37.235Z,16.82
2018-10-09T23:49:07.294Z,15.20
2018-10-09T23:51:37.209Z,15.33
2018-10-09T23:54:07.390Z,14.60
2018-10-09T23:56:37.358Z,14.85
2018-10-09T23:59:07.673Z,13.93
